createdAt,value
2019-03-08T00:00:38.359Z,87.27
2019-03-08T00:01:38.312Z,87.46
2019-03-08T00:02:38.284Z,87.37
2019-03-08T00:03:38.268Z,87.37
2019-03-08T00:04:38.243Z,87.56
2019-03-08T00:05:38.231Z,87.46
2019-03-08T00:06:38.219Z,87.56
2019-03-08T00:07:38.186Z,87.56
2019-03-08T00:08:38.176Z,87.37
2019-03-08T00:09:39.920Z,87.18
2019-03-08T00:10:38.156Z,87.46
2019-03-08T00:11:38.128Z,87.56
2019-03-08T00:12:38.079Z,87.65
2019-03-08T00:13:38.063Z,87.46
2019-03-08T00:14:38.038Z,87.65
2019-03-08T00:15:38.020Z,87.94
2019-03-08T00:16:38.005Z,88.60
2019-03-08T00:17:38.000Z,89.37
2019-03-08T00:18:37.978Z,90.03
2019-03-08T00:19:37.937Z,90.51
2019-03-08T00:20:37.915Z,91.46
2019-03-08T00:21:38.421Z,90.99
2019-03-08T00:22:37.888Z,91.08
2019-03-08T00:23:37.853Z,91.65
2019-03-08T00:24:37.842Z,93.32
2019-03-08T00:25:37.813Z,94.27
2019-03-08T00:26:37.789Z,94.84
2019-03-08T00:27:37.788Z,96.17
2019-03-08T00:28:37.753Z,97.31
2019-03-08T00:29:37.728Z,97.98
2019-03-08T00:30:37.709Z,98.55
2019-03-08T00:31:37.691Z,97.88
2019-03-08T00:32:37.687Z,98.08
2019-03-08T00:33:37.644Z,99.69
2019-03-08T00:34:37.621Z,99.99
2019-03-08T00:35:37.640Z,99.98
2019-03-08T00:36:37.584Z,99.41
2019-03-08T00:37:37.566Z,99.31
2019-03-08T00:38:37.548Z,98.65
2019-03-08T00:39:37.518Z,98.46
2019-03-08T00:40:37.503Z,97.03
2019-03-08T00:41:37.499Z,96.74
2019-03-08T00:42:37.462Z,95.98
2019-03-08T00:43:37.446Z,96.65
2019-03-08T00:44:37.419Z,95.60
2019-03-08T00:45:37.395Z,95.41
2019-03-08T00:46:37.378Z,94.93
2019-03-08T00:47:37.381Z,95.22
2019-03-08T00:48:37.332Z,94.65
2019-03-08T00:49:37.310Z,94.13
2019-03-08T00:50:37.294Z,94.46
2019-03-08T00:51:37.275Z,94.27
2019-03-08T00:52:37.244Z,94.18
2019-03-08T00:53:37.247Z,94.51
2019-03-08T00:54:37.211Z,93.70
2019-03-08T00:55:37.187Z,94.13
2019-03-08T00:56:37.190Z,94.27
2019-03-08T00:57:37.154Z,94.13
2019-03-08T00:58:37.123Z,93.94
2019-03-08T00:59:37.118Z,94.27
2019-03-08T01:00:37.089Z,94.18
2019-03-08T01:01:37.064Z,94.98
2019-03-08T01:02:37.042Z,94.46
2019-03-08T01:03:37.022Z,94.51
2019-03-08T01:04:37.023Z,94.65
2019-03-08T01:05:36.985Z,94.65
2019-03-08T01:06:36.961Z,94.22
2019-03-08T01:07:36.938Z,94.22
2019-03-08T01:08:36.979Z,94.84
2019-03-08T01:09:36.900Z,94.74
2019-03-08T01:10:36.915Z,95.17
2019-03-08T01:11:36.882Z,95.17
2019-03-08T01:12:36.835Z,95.12
2019-03-08T01:13:36.816Z,94.89
2019-03-08T01:14:36.807Z,94.32
2019-03-08T01:15:36.771Z,94.74
2019-03-08T01:16:36.751Z,95.22
2019-03-08T01:17:36.731Z,95.56
2019-03-08T01:18:36.725Z,95.60
2019-03-08T01:19:36.690Z,96.08
2019-03-08T01:20:36.670Z,96.65
2019-03-08T01:21:36.643Z,96.94
2019-03-08T01:22:36.634Z,97.22
2019-03-08T01:23:36.606Z,96.74
2019-03-08T01:24:36.599Z,97.13
2019-03-08T01:25:36.580Z,97.13
2019-03-08T01:26:36.538Z,96.94
2019-03-08T01:27:36.523Z,96.94
2019-03-08T01:28:36.502Z,96.94
2019-03-08T01:29:36.500Z,97.31
2019-03-08T01:30:36.459Z,97.31
2019-03-08T01:31:36.442Z,97.31
2019-03-08T01:32:36.435Z,97.22
2019-03-08T01:33:36.409Z,97.22
2019-03-08T01:34:36.378Z,97.41
2019-03-08T01:35:36.353Z,97.13
2019-03-08T01:36:36.330Z,97.60
2019-03-08T01:37:36.312Z,97.88
2019-03-08T01:38:36.305Z,98.74
2019-03-08T01:39:36.277Z,98.93
2019-03-08T01:40:36.252Z,99.41
2019-03-08T01:41:36.264Z,99.88
2019-03-08T01:42:36.212Z,99.99
2019-03-08T01:43:36.188Z,99.99
2019-03-08T01:44:36.179Z,99.99
2019-03-08T01:45:36.193Z,99.99
2019-03-08T01:46:36.128Z,99.99
2019-03-08T01:47:36.125Z,99.99
2019-03-08T01:48:36.088Z,99.99
2019-03-08T01:49:36.065Z,99.99
2019-03-08T01:50:36.043Z,99.99
2019-03-08T01:51:36.028Z,99.99
2019-03-08T01:52:36.023Z,99.99
2019-03-08T01:53:35.982Z,99.99
2019-03-08T01:54:35.963Z,99.99
2019-03-08T01:55:35.938Z,99.99
2019-03-08T01:56:36.018Z,99.99
2019-03-08T01:57:35.916Z,99.99
2019-03-08T01:58:35.907Z,99.99
2019-03-08T01:59:35.860Z,99.99
2019-03-08T02:00:35.924Z,99.99
2019-03-08T02:01:35.813Z,99.99
2019-03-08T02:02:35.793Z,99.99
2019-03-08T02:03:35.776Z,99.99
2019-03-08T02:04:35.781Z,99.99
2019-03-08T02:05:35.729Z,99.99
2019-03-08T02:06:35.708Z,99.99
2019-03-08T02:07:35.693Z,99.99
2019-03-08T02:08:35.667Z,99.99
2019-03-08T02:09:35.653Z,99.99
2019-03-08T02:10:35.641Z,99.99
2019-03-08T02:11:35.599Z,99.99
2019-03-08T02:12:35.583Z,99.99
2019-03-08T02:13:35.562Z,99.99
2019-03-08T02:14:35.562Z,99.99
2019-03-08T02:15:35.516Z,99.99
2019-03-08T02:16:35.498Z,99.99
2019-03-08T02:17:35.478Z,99.99
2019-03-08T02:18:35.456Z,99.99
2019-03-08T02:19:35.439Z,99.99
2019-03-08T02:20:35.440Z,99.99
2019-03-08T02:21:35.394Z,99.99
2019-03-08T02:22:35.373Z,99.99
2019-03-08T02:23:35.366Z,99.99
2019-03-08T02:24:35.333Z,99.99
2019-03-08T02:25:35.306Z,99.99
2019-03-08T02:26:35.304Z,99.99
2019-03-08T02:27:35.265Z,99.99
2019-03-08T02:28:35.248Z,99.99
2019-03-08T02:29:35.225Z,99.99
2019-03-08T02:30:35.208Z,99.99
2019-03-08T02:31:35.198Z,99.99
2019-03-08T02:32:35.174Z,99.99
2019-03-08T02:33:35.138Z,99.99
2019-03-08T02:34:35.121Z,99.99
2019-03-08T02:35:35.098Z,99.99
2019-03-08T02:36:35.074Z,99.99
2019-03-08T02:37:35.057Z,99.99
2019-03-08T02:38:35.050Z,99.99
2019-03-08T02:39:35.018Z,99.99
2019-03-08T02:40:34.991Z,99.99
2019-03-08T02:41:34.971Z,99.99
2019-03-08T02:42:34.948Z,99.99
2019-03-08T02:43:34.944Z,99.99
2019-03-08T02:44:34.909Z,99.99
2019-03-08T02:45:34.895Z,99.99
2019-03-08T02:46:34.867Z,99.99
2019-03-08T02:47:34.844Z,99.99
2019-03-08T02:48:34.837Z,99.99
2019-03-08T02:49:34.803Z,99.99
2019-03-08T02:50:34.792Z,99.99
2019-03-08T02:51:34.791Z,99.99
2019-03-08T02:52:34.745Z,99.99
2019-03-08T02:53:34.739Z,99.99
2019-03-08T02:54:34.701Z,99.99
2019-03-08T02:55:34.709Z,99.99
2019-03-08T02:56:34.657Z,99.99
2019-03-08T02:57:34.641Z,99.99
2019-03-08T02:58:34.623Z,99.99
2019-03-08T02:59:34.592Z,99.99
2019-03-08T03:00:34.572Z,99.99
2019-03-08T03:01:34.565Z,99.99
2019-03-08T03:02:34.527Z,99.99
2019-03-08T03:03:34.526Z,99.99
2019-03-08T03:04:34.495Z,99.99
2019-03-08T03:05:34.468Z,99.99
2019-03-08T03:06:34.464Z,99.99
2019-03-08T03:07:34.422Z,99.99
2019-03-08T03:08:34.409Z,99.99
2019-03-08T03:09:34.381Z,99.99
2019-03-08T03:10:34.389Z,99.99
2019-03-08T03:11:34.339Z,99.99
2019-03-08T03:12:34.332Z,99.99
2019-03-08T03:13:34.296Z,99.99
2019-03-08T03:14:34.278Z,99.99
2019-03-08T03:15:34.258Z,99.99
2019-03-08T03:16:34.245Z,99.99
2019-03-08T03:17:34.218Z,99.99
2019-03-08T03:18:34.186Z,99.99
2019-03-08T03:19:34.168Z,99.99
2019-03-08T03:20:34.150Z,99.99
2019-03-08T03:21:34.139Z,99.99
2019-03-08T03:22:34.099Z,99.99
2019-03-08T03:23:34.081Z,99.99
2019-03-08T03:24:34.062Z,99.99
2019-03-08T03:25:34.040Z,99.99
2019-03-08T03:26:34.021Z,99.99
2019-03-08T03:27:34.016Z,99.99
2019-03-08T03:28:33.980Z,99.99
2019-03-08T03:29:33.958Z,99.99
2019-03-08T03:30:33.939Z,99.99
2019-03-08T03:31:33.933Z,99.99
2019-03-08T03:32:33.912Z,99.99
2019-03-08T03:33:33.874Z,99.99
2019-03-08T03:34:33.851Z,99.99
2019-03-08T03:35:33.836Z,99.99
2019-03-08T03:36:33.814Z,99.99
2019-03-08T03:37:33.785Z,99.99
2019-03-08T03:38:33.786Z,99.99
2019-03-08T03:39:33.758Z,99.99
2019-03-08T03:40:33.723Z,99.99
2019-03-08T03:41:33.724Z,99.99
2019-03-08T03:42:33.693Z,99.99
2019-03-08T03:43:33.663Z,99.99
2019-03-08T03:44:33.651Z,99.99
2019-03-08T03:45:33.624Z,99.99
2019-03-08T03:46:33.597Z,99.99
2019-03-08T03:47:33.576Z,99.99
2019-03-08T03:48:33.554Z,99.99
2019-03-08T03:49:34.492Z,99.99
2019-03-08T03:50:33.521Z,99.99
2019-03-08T03:51:33.490Z,99.99
2019-03-08T03:52:33.467Z,99.99
2019-03-08T03:53:33.445Z,99.99
2019-03-08T03:54:33.426Z,99.99
2019-03-08T03:55:33.428Z,99.99
2019-03-08T03:56:33.388Z,99.99
2019-03-08T03:57:33.469Z,99.99
2019-03-08T03:58:33.339Z,99.99
2019-03-08T03:59:33.319Z,99.99
2019-03-08T04:00:33.311Z,99.99
2019-03-08T04:01:33.298Z,99.99
2019-03-08T04:02:33.253Z,99.99
2019-03-08T04:03:33.951Z,99.99
2019-03-08T04:04:33.210Z,99.99
2019-03-08T04:05:33.367Z,99.99
2019-03-08T04:06:33.170Z,99.99
2019-03-08T04:07:33.170Z,99.99
2019-03-08T04:08:33.126Z,99.99
2019-03-08T04:09:33.103Z,99.99
2019-03-08T04:10:33.086Z,99.99
2019-03-08T04:11:33.072Z,99.99
2019-03-08T04:12:33.057Z,99.99
2019-03-08T04:13:33.038Z,99.99
2019-03-08T04:14:32.995Z,99.99
2019-03-08T04:15:32.976Z,99.99
2019-03-08T04:16:32.951Z,99.99
2019-03-08T04:17:32.931Z,99.99
2019-03-08T04:18:32.907Z,99.99
2019-03-08T04:19:32.920Z,99.99
2019-03-08T04:20:32.864Z,99.99
2019-03-08T04:21:32.855Z,99.99
2019-03-08T04:22:32.825Z,99.99
2019-03-08T04:23:32.823Z,99.99
2019-03-08T04:24:32.782Z,99.99
2019-03-08T04:25:32.763Z,99.99
2019-03-08T04:26:32.743Z,99.99
2019-03-08T04:27:32.722Z,99.99
2019-03-08T04:28:32.702Z,99.99
2019-03-08T04:29:32.692Z,99.99
2019-03-08T04:30:32.669Z,99.99
2019-03-08T04:31:32.630Z,99.99
2019-03-08T04:32:32.611Z,99.99
2019-03-08T04:33:32.588Z,99.99
2019-03-08T04:34:32.570Z,99.99
2019-03-08T04:35:32.550Z,99.99
2019-03-08T04:36:32.537Z,99.99
2019-03-08T04:37:32.504Z,99.99
2019-03-08T04:38:32.485Z,99.99
2019-03-08T04:39:32.464Z,99.99
2019-03-08T04:40:32.459Z,99.99
2019-03-08T04:41:32.422Z,99.99
2019-03-08T04:42:32.398Z,99.99
2019-03-08T04:43:32.376Z,99.99
2019-03-08T04:44:32.358Z,99.99
2019-03-08T04:45:32.332Z,99.99
2019-03-08T04:46:32.332Z,99.99
2019-03-08T04:47:32.290Z,99.99
2019-03-08T04:48:32.269Z,99.99
2019-03-08T04:49:32.249Z,99.99
2019-03-08T04:50:32.271Z,99.99
2019-03-08T04:51:32.234Z,99.99
2019-03-08T04:52:32.186Z,99.99
2019-03-08T04:53:32.163Z,99.99
2019-03-08T04:54:32.141Z,99.99
2019-03-08T04:55:32.124Z,99.99
2019-03-08T04:56:32.121Z,99.99
2019-03-08T04:57:32.141Z,99.99
2019-03-08T04:58:32.055Z,99.99
2019-03-08T04:59:32.034Z,99.99
2019-03-08T05:00:32.016Z,99.99
2019-03-08T05:01:31.999Z,99.99
2019-03-08T05:02:31.990Z,99.99
2019-03-08T05:03:31.963Z,99.99
2019-03-08T05:04:31.929Z,99.99
2019-03-08T05:05:31.907Z,99.99
2019-03-08T05:06:31.889Z,99.99
2019-03-08T05:07:31.865Z,99.99
2019-03-08T05:08:31.859Z,99.99
2019-03-08T05:09:31.839Z,99.99
2019-03-08T05:10:31.803Z,99.99
2019-03-08T05:11:31.784Z,99.99
2019-03-08T05:12:31.759Z,99.99
2019-03-08T05:13:31.737Z,99.99
2019-03-08T05:14:31.718Z,99.99
2019-03-08T05:15:31.707Z,99.99
2019-03-08T05:16:31.674Z,99.99
2019-03-08T05:17:31.648Z,99.99
2019-03-08T05:18:33.028Z,99.99
2019-03-08T05:19:31.624Z,99.99
2019-03-08T05:20:31.608Z,99.99
2019-03-08T05:21:31.565Z,99.99
2019-03-08T05:22:31.549Z,99.99
2019-03-08T05:23:31.525Z,99.99
2019-03-08T05:24:31.500Z,99.99
2019-03-08T05:25:31.497Z,99.99
2019-03-08T05:26:31.485Z,99.99
2019-03-08T05:27:31.442Z,99.99
2019-03-08T05:28:31.414Z,99.99
2019-03-08T05:29:31.397Z,99.99
2019-03-08T05:30:31.388Z,99.99
2019-03-08T05:31:31.364Z,99.99
2019-03-08T05:32:31.343Z,99.99
2019-03-08T05:33:31.313Z,99.99
2019-03-08T05:34:31.290Z,99.99
2019-03-08T05:35:31.297Z,99.99
2019-03-08T05:36:31.265Z,99.99
2019-03-08T05:37:31.228Z,99.99
2019-03-08T05:38:31.207Z,99.99
2019-03-08T05:39:31.185Z,99.99
2019-03-08T05:40:31.159Z,99.99
2019-03-08T05:41:31.156Z,99.99
2019-03-08T05:42:31.118Z,99.99
2019-03-08T05:43:31.096Z,99.99
2019-03-08T05:44:31.086Z,99.99
2019-03-08T05:45:31.083Z,99.99
2019-03-08T05:46:31.030Z,99.99
2019-03-08T05:47:31.011Z,99.99
2019-03-08T05:48:30.988Z,99.99
2019-03-08T05:49:30.969Z,99.99
2019-03-08T05:50:30.946Z,99.99
2019-03-08T05:51:30.939Z,99.99
2019-03-08T05:52:30.905Z,99.99
2019-03-08T05:53:30.897Z,99.99
2019-03-08T05:54:30.861Z,99.99
2019-03-08T05:55:30.839Z,99.99
2019-03-08T05:56:30.822Z,99.99
2019-03-08T05:57:30.797Z,99.99
2019-03-08T05:58:30.896Z,99.99
2019-03-08T05:59:30.756Z,99.99
2019-03-08T06:00:32.873Z,99.99
2019-03-08T06:01:30.719Z,99.99
2019-03-08T06:02:30.693Z,99.99
2019-03-08T06:03:30.675Z,99.99
2019-03-08T06:04:30.663Z,99.99
2019-03-08T06:05:30.626Z,99.99
2019-03-08T06:06:30.611Z,99.99
2019-03-08T06:07:30.585Z,99.99
2019-03-08T06:08:30.579Z,99.99
2019-03-08T06:09:30.539Z,99.99
2019-03-08T06:10:30.540Z,99.99
2019-03-08T06:11:30.499Z,99.99
2019-03-08T06:12:30.474Z,99.99
2019-03-08T06:13:30.472Z,99.99
2019-03-08T06:14:30.436Z,99.99
2019-03-08T06:15:30.416Z,99.99
2019-03-08T06:16:30.408Z,99.99
2019-03-08T06:17:30.377Z,99.99
2019-03-08T06:18:30.358Z,99.99
2019-03-08T06:19:30.331Z,99.99
2019-03-08T06:20:30.328Z,99.99
2019-03-08T06:21:30.307Z,99.99
2019-03-08T06:22:30.270Z,99.99
2019-03-08T06:23:30.251Z,99.99
2019-03-08T06:24:30.226Z,99.99
2019-03-08T06:25:30.204Z,99.99
2019-03-08T06:26:30.182Z,99.99
2019-03-08T06:27:30.175Z,99.99
2019-03-08T06:28:30.134Z,99.99
2019-03-08T06:29:30.139Z,99.99
2019-03-08T06:30:30.102Z,99.99
2019-03-08T06:31:30.080Z,99.99
2019-03-08T06:32:30.068Z,99.99
2019-03-08T06:33:30.031Z,99.99
2019-03-08T06:34:30.012Z,99.99
2019-03-08T06:35:29.988Z,99.99
2019-03-08T06:36:29.968Z,99.99
2019-03-08T06:37:29.944Z,99.99
2019-03-08T06:38:29.941Z,99.99
2019-03-08T06:39:29.908Z,99.99
2019-03-08T06:40:29.895Z,99.99
2019-03-08T06:41:29.861Z,99.99
2019-03-08T06:42:29.876Z,99.99
2019-03-08T06:43:29.823Z,99.99
2019-03-08T06:44:29.798Z,99.99
2019-03-08T06:45:29.774Z,99.99
2019-03-08T06:46:29.753Z,99.99
2019-03-08T06:47:29.731Z,99.99
2019-03-08T06:48:29.731Z,99.99
2019-03-08T06:49:29.692Z,99.99
2019-03-08T06:50:29.666Z,99.99
2019-03-08T06:51:29.647Z,99.99
2019-03-08T06:52:29.629Z,99.99
2019-03-08T06:53:29.604Z,99.99
2019-03-08T06:54:29.603Z,99.99
2019-03-08T06:55:29.569Z,99.99
2019-03-08T06:56:29.547Z,99.99
2019-03-08T06:57:29.526Z,99.99
2019-03-08T06:58:29.503Z,99.99
2019-03-08T06:59:29.478Z,99.99
2019-03-08T07:00:29.477Z,99.99
2019-03-08T07:01:29.435Z,99.99
2019-03-08T07:02:30.253Z,99.99
2019-03-08T07:03:29.393Z,99.99
2019-03-08T07:04:29.382Z,99.99
2019-03-08T07:05:29.365Z,99.99
2019-03-08T07:06:29.347Z,99.99
2019-03-08T07:07:29.308Z,99.99
2019-03-08T07:08:29.286Z,99.99
2019-03-08T07:09:29.261Z,99.99
2019-03-08T07:10:29.239Z,99.99
2019-03-08T07:11:29.240Z,99.99
2019-03-08T07:12:29.203Z,99.99
2019-03-08T07:13:29.193Z,99.99
2019-03-08T07:14:29.161Z,99.99
2019-03-08T07:15:29.140Z,99.99
2019-03-08T07:16:29.134Z,99.99
2019-03-08T07:17:29.095Z,99.99
2019-03-08T07:18:29.084Z,99.99
2019-03-08T07:19:29.057Z,99.99
2019-03-08T07:20:29.031Z,99.99
2019-03-08T07:21:29.014Z,99.99
2019-03-08T07:22:29.014Z,99.99
2019-03-08T07:23:28.966Z,99.99
2019-03-08T07:24:28.975Z,99.99
2019-03-08T07:25:28.928Z,99.99
2019-03-08T07:26:28.911Z,99.99
2019-03-08T07:27:28.905Z,99.99
2019-03-08T07:28:28.866Z,99.99
2019-03-08T07:29:28.861Z,99.99
2019-03-08T07:30:28.823Z,99.99
2019-03-08T07:31:28.813Z,99.99
2019-03-08T07:32:28.789Z,99.99
2019-03-08T07:33:28.779Z,99.99
2019-03-08T07:34:28.744Z,99.99
2019-03-08T07:35:28.724Z,99.99
2019-03-08T07:36:28.692Z,99.99
2019-03-08T07:37:28.677Z,99.99
2019-03-08T07:38:28.659Z,99.99
2019-03-08T07:39:28.659Z,99.99
2019-03-08T07:40:28.612Z,99.99
2019-03-08T07:41:29.004Z,99.99
2019-03-08T07:42:28.569Z,99.99
2019-03-08T07:43:28.557Z,99.99
2019-03-08T07:44:28.553Z,99.99
2019-03-08T07:45:28.522Z,99.99
2019-03-08T07:46:28.485Z,99.99
2019-03-08T07:47:28.474Z,99.99
2019-03-08T07:48:28.454Z,99.99
2019-03-08T07:49:28.446Z,99.99
2019-03-08T07:50:28.409Z,99.99
2019-03-08T07:51:28.389Z,99.99
2019-03-08T07:52:28.368Z,99.99
2019-03-08T07:53:28.350Z,99.99
2019-03-08T07:54:28.323Z,99.99
2019-03-08T07:55:28.313Z,99.99
2019-03-08T07:56:28.290Z,99.99
2019-03-08T07:57:28.256Z,99.99
2019-03-08T07:58:28.234Z,99.99
2019-03-08T07:59:28.217Z,99.99
2019-03-08T08:00:28.215Z,99.99
2019-03-08T08:01:28.197Z,99.99
2019-03-08T08:02:28.160Z,99.99
2019-03-08T08:03:28.130Z,99.99
2019-03-08T08:04:28.108Z,99.99
2019-03-08T08:05:28.089Z,99.99
2019-03-08T08:06:28.067Z,99.99
2019-03-08T08:07:28.062Z,99.99
2019-03-08T08:08:28.033Z,99.99
2019-03-08T08:09:27.996Z,99.99
2019-03-08T08:10:27.985Z,99.99
2019-03-08T08:11:27.963Z,99.99
2019-03-08T08:12:27.945Z,99.99
2019-03-08T08:13:27.948Z,99.99
2019-03-08T08:14:27.904Z,99.99
2019-03-08T08:15:27.880Z,99.99
2019-03-08T08:16:27.854Z,99.99
2019-03-08T08:17:27.842Z,99.99
2019-03-08T08:18:27.814Z,99.99
2019-03-08T08:19:27.823Z,99.99
2019-03-08T08:20:27.774Z,99.99
2019-03-08T08:21:27.754Z,99.99
2019-03-08T08:22:27.747Z,99.99
2019-03-08T08:23:34.098Z,99.99
2019-03-08T08:24:27.689Z,99.99
2019-03-08T08:25:36.289Z,99.99
2019-03-08T08:26:27.668Z,99.99
2019-03-08T08:27:27.638Z,99.99
2019-03-08T08:28:27.720Z,99.99
2019-03-08T08:29:34.730Z,99.99
2019-03-08T08:30:27.617Z,99.99
2019-03-08T08:31:27.551Z,99.99
2019-03-08T08:32:27.530Z,99.99
2019-03-08T08:33:27.510Z,99.99
2019-03-08T08:34:27.492Z,99.99
2019-03-08T08:35:27.505Z,99.99
2019-03-08T08:36:27.467Z,99.99
2019-03-08T08:37:27.430Z,99.99
2019-03-08T08:38:27.411Z,99.93
2019-03-08T08:39:27.394Z,99.50
2019-03-08T08:40:27.386Z,98.83
2019-03-08T08:41:27.372Z,98.27
2019-03-08T08:42:27.328Z,98.74
2019-03-08T08:43:27.306Z,96.08
2019-03-08T08:44:27.287Z,96.36
2019-03-08T08:45:27.274Z,96.17
2019-03-08T08:46:27.250Z,97.03
2019-03-08T08:47:27.248Z,95.89
2019-03-08T08:48:27.204Z,95.60
2019-03-08T08:49:27.184Z,96.08
2019-03-08T08:50:27.167Z,96.08
2019-03-08T08:51:27.146Z,95.03
2019-03-08T08:52:27.135Z,95.03
2019-03-08T08:53:27.155Z,94.27
2019-03-08T08:54:27.081Z,94.37
2019-03-08T08:55:27.064Z,93.60
2019-03-08T08:56:27.046Z,93.23
2019-03-08T08:57:27.021Z,93.89
2019-03-08T08:58:27.067Z,93.04
2019-03-08T08:59:26.984Z,92.27
2019-03-08T09:00:26.962Z,91.89
2019-03-08T09:01:26.954Z,91.61
2019-03-08T09:02:26.923Z,90.75
2019-03-08T09:03:26.904Z,92.41
2019-03-08T09:04:26.894Z,92.65
2019-03-08T09:05:26.853Z,92.89
2019-03-08T09:06:26.840Z,92.32
2019-03-08T09:07:26.816Z,90.61
2019-03-08T09:08:26.830Z,89.65
2019-03-08T09:09:26.778Z,88.13
2019-03-08T09:10:26.776Z,88.04
2019-03-08T09:11:26.737Z,88.23
2019-03-08T09:12:26.716Z,88.79
2019-03-08T09:13:26.703Z,89.27
2019-03-08T09:14:26.685Z,88.32
2019-03-08T09:15:26.658Z,89.08
2019-03-08T09:16:26.649Z,88.42
2019-03-08T09:17:26.616Z,87.85
2019-03-08T09:18:26.618Z,88.04
2019-03-08T09:19:26.587Z,87.85
2019-03-08T09:20:26.558Z,87.94
2019-03-08T09:21:26.533Z,87.85
2019-03-08T09:22:26.517Z,87.70
2019-03-08T09:23:26.499Z,87.60
2019-03-08T09:24:26.497Z,86.84
2019-03-08T09:25:26.458Z,86.84
2019-03-08T09:26:26.440Z,86.94
2019-03-08T09:27:26.420Z,87.13
2019-03-08T09:28:26.424Z,86.46
2019-03-08T09:29:26.386Z,87.23
2019-03-08T09:30:26.362Z,85.51
2019-03-08T09:31:26.336Z,85.70
2019-03-08T09:32:26.333Z,86.36
2019-03-08T09:33:26.327Z,86.65
2019-03-08T09:34:26.304Z,86.18
2019-03-08T09:35:26.267Z,86.13
2019-03-08T09:36:26.247Z,86.42
2019-03-08T09:37:26.227Z,86.42
2019-03-08T09:38:26.208Z,87.08
2019-03-08T09:39:26.202Z,87.08
2019-03-08T09:40:26.167Z,87.37
2019-03-08T09:41:26.170Z,87.65
2019-03-08T09:42:26.132Z,87.56
2019-03-08T09:43:26.115Z,87.85
2019-03-08T09:44:26.089Z,89.27
2019-03-08T09:45:26.067Z,88.42
2019-03-08T09:46:26.071Z,88.23
2019-03-08T09:47:26.032Z,89.08
2019-03-08T09:48:26.024Z,89.08
2019-03-08T09:49:25.994Z,88.51
2019-03-08T09:50:25.969Z,87.75
2019-03-08T09:51:25.975Z,87.56
2019-03-08T09:52:26.569Z,88.04
2019-03-08T09:53:25.915Z,88.13
2019-03-08T09:54:25.900Z,87.85
2019-03-08T09:55:25.880Z,87.46
2019-03-08T09:56:25.863Z,88.04
2019-03-08T09:57:25.863Z,88.13
2019-03-08T09:58:25.994Z,87.56
2019-03-08T09:59:27.411Z,87.85
2019-03-08T10:00:25.945Z,88.60
2019-03-08T10:01:25.757Z,87.94
2019-03-08T10:02:25.763Z,87.27
2019-03-08T10:03:25.726Z,87.37
2019-03-08T10:04:25.707Z,86.80
2019-03-08T10:05:25.686Z,87.23
2019-03-08T10:06:25.698Z,87.51
2019-03-08T10:07:25.650Z,87.32
2019-03-08T10:08:25.824Z,86.18
2019-03-08T10:09:25.602Z,85.32
2019-03-08T10:10:25.691Z,85.13
2019-03-08T10:11:25.570Z,85.60
2019-03-08T10:12:25.545Z,85.89
2019-03-08T10:13:25.532Z,85.60
2019-03-08T10:14:25.571Z,84.56
2019-03-08T10:15:25.501Z,84.75
2019-03-08T10:16:25.618Z,85.22
2019-03-08T10:17:25.467Z,83.70
2019-03-08T10:18:25.435Z,84.17
2019-03-08T10:19:25.419Z,84.42
2019-03-08T10:20:25.416Z,84.08
2019-03-08T10:21:25.380Z,85.03
2019-03-08T10:22:25.361Z,85.60
2019-03-08T10:23:25.343Z,84.84
2019-03-08T10:24:25.324Z,84.46
2019-03-08T10:25:25.320Z,84.36
2019-03-08T10:26:25.290Z,83.89
2019-03-08T10:27:25.277Z,84.84
2019-03-08T10:28:25.248Z,85.08
2019-03-08T10:29:25.221Z,85.80
2019-03-08T10:30:25.256Z,85.22
2019-03-08T10:31:25.187Z,84.08
2019-03-08T10:32:25.175Z,83.41
2019-03-08T10:33:25.149Z,83.03
2019-03-08T10:34:25.151Z,83.18
2019-03-08T10:35:25.117Z,83.37
2019-03-08T10:36:25.108Z,84.84
2019-03-08T10:37:25.072Z,84.84
2019-03-08T10:38:25.062Z,84.17
2019-03-08T10:39:25.037Z,83.13
2019-03-08T10:40:25.009Z,83.22
2019-03-08T10:41:25.015Z,83.32
2019-03-08T10:42:24.989Z,83.03
2019-03-08T10:43:24.959Z,83.55
2019-03-08T10:44:24.938Z,82.12
2019-03-08T10:45:24.919Z,81.65
2019-03-08T10:46:24.927Z,81.17
2019-03-08T10:47:24.884Z,81.74
2019-03-08T10:48:24.871Z,81.17
2019-03-08T10:49:24.858Z,80.98
2019-03-08T10:50:24.822Z,81.88
2019-03-08T10:51:24.806Z,80.50
2019-03-08T10:52:24.806Z,79.55
2019-03-08T10:53:24.770Z,81.65
2019-03-08T10:54:24.780Z,81.26
2019-03-08T10:55:24.735Z,81.65
2019-03-08T10:56:24.716Z,80.88
2019-03-08T10:57:24.699Z,81.36
2019-03-08T10:58:24.683Z,81.89
2019-03-08T10:59:24.666Z,81.13
2019-03-08T11:00:24.660Z,80.84
2019-03-08T11:01:24.627Z,81.70
2019-03-08T11:02:24.616Z,81.70
2019-03-08T11:03:24.602Z,81.89
2019-03-08T11:04:24.571Z,82.18
2019-03-08T11:05:24.567Z,81.79
2019-03-08T11:06:24.551Z,81.23
2019-03-08T11:07:24.516Z,81.70
2019-03-08T11:08:29.744Z,81.79
2019-03-08T11:09:24.485Z,82.42
2019-03-08T11:10:24.476Z,82.14
2019-03-08T11:11:24.458Z,83.18
2019-03-08T11:12:24.439Z,83.18
2019-03-08T11:13:24.399Z,82.99
2019-03-08T11:14:24.386Z,83.09
2019-03-08T11:15:24.952Z,83.13
2019-03-08T11:16:25.015Z,82.79
2019-03-08T11:17:24.345Z,82.17
2019-03-08T11:18:24.314Z,79.91
2019-03-08T11:19:24.283Z,78.18
2019-03-08T11:20:24.267Z,75.16
2019-03-08T11:21:24.248Z,74.21
2019-03-08T11:22:24.251Z,73.54
2019-03-08T11:23:24.213Z,72.20
2019-03-08T11:24:24.192Z,71.41
2019-03-08T11:25:24.189Z,71.72
2019-03-08T11:26:24.172Z,71.38
2019-03-08T11:27:24.163Z,69.43
2019-03-08T11:28:24.123Z,72.11
2019-03-08T11:29:24.127Z,71.06
2019-03-08T11:30:24.097Z,70.52
2019-03-08T11:31:24.079Z,70.29
2019-03-08T11:32:24.087Z,70.33
2019-03-08T11:33:24.047Z,69.66
2019-03-08T11:34:25.460Z,70.54
2019-03-08T11:35:24.021Z,73.08
2019-03-08T11:36:24.001Z,73.33
2019-03-08T11:37:23.985Z,73.96
2019-03-08T11:38:23.964Z,75.40
2019-03-08T11:39:23.974Z,76.79
2019-03-08T11:40:23.935Z,77.87
2019-03-08T11:41:23.915Z,78.25
2019-03-08T11:42:23.903Z,76.01
2019-03-08T11:43:23.882Z,74.93
2019-03-08T11:44:23.889Z,74.24
2019-03-08T11:45:23.867Z,72.78
2019-03-08T11:46:23.837Z,72.83
2019-03-08T11:47:23.823Z,74.04
2019-03-08T11:48:23.819Z,74.17
2019-03-08T11:49:23.790Z,71.98
2019-03-08T11:50:23.776Z,71.94
2019-03-08T11:51:23.795Z,73.72
2019-03-08T11:52:23.747Z,74.48
2019-03-08T11:53:23.730Z,74.17
2019-03-08T11:54:23.727Z,73.16
2019-03-08T11:55:23.686Z,71.25
2019-03-08T11:56:23.689Z,70.39
2019-03-08T11:57:23.674Z,69.95
2019-03-08T11:58:23.657Z,68.48
2019-03-08T11:59:23.632Z,70.42
2019-03-08T12:00:23.612Z,69.18
2019-03-08T12:01:23.596Z,67.84
2019-03-08T12:02:23.599Z,68.61
2019-03-08T12:03:23.568Z,71.82
2019-03-08T12:04:23.548Z,71.50
2019-03-08T12:05:23.537Z,72.42
2019-03-08T12:06:23.522Z,73.28
2019-03-08T12:07:23.526Z,74.99
2019-03-08T12:08:23.486Z,75.28
2019-03-08T12:09:23.479Z,74.08
2019-03-08T12:10:23.459Z,74.15
2019-03-08T12:11:23.467Z,70.56
2019-03-08T12:12:23.424Z,67.46
2019-03-08T12:13:23.641Z,66.50
2019-03-08T12:14:23.397Z,66.16
2019-03-08T12:15:23.433Z,65.68
2019-03-08T12:16:23.375Z,65.48
2019-03-08T12:17:23.352Z,64.53
2019-03-08T12:18:23.343Z,64.94
2019-03-08T12:19:23.332Z,67.52
2019-03-08T12:20:23.319Z,68.10
2019-03-08T12:21:23.319Z,68.03
2019-03-08T12:22:23.284Z,69.93
2019-03-08T12:23:23.279Z,72.38
2019-03-08T12:24:23.304Z,73.14
2019-03-08T12:25:23.243Z,72.76
2019-03-08T12:26:23.277Z,71.59
2019-03-08T12:27:23.225Z,68.86
2019-03-08T12:28:23.197Z,67.43
2019-03-08T12:29:23.187Z,66.13
2019-03-08T12:30:23.165Z,65.74
2019-03-08T12:31:23.169Z,64.50
2019-03-08T12:32:23.599Z,64.88
2019-03-08T12:33:23.123Z,65.07
2019-03-08T12:34:23.112Z,66.95
2019-03-08T12:35:23.102Z,67.77
2019-03-08T12:36:23.100Z,68.12
2019-03-08T12:37:23.074Z,69.56
2019-03-08T12:38:23.064Z,70.22
2019-03-08T12:39:23.044Z,69.49
2019-03-08T12:40:23.026Z,69.08
2019-03-08T12:41:23.036Z,69.65
2019-03-08T12:42:23.012Z,69.23
2019-03-08T12:43:22.986Z,70.67
2019-03-08T12:44:22.973Z,72.00
2019-03-08T12:45:22.956Z,73.11
2019-03-08T12:46:22.972Z,72.06
2019-03-08T12:47:22.924Z,72.82
2019-03-08T12:48:24.076Z,72.53
2019-03-08T12:49:22.898Z,72.76
2019-03-08T12:50:22.893Z,74.01
2019-03-08T12:51:22.863Z,72.67
2019-03-08T12:52:22.851Z,72.38